Hampton Falls, New Hampshire
Current Conditions -  °F | °C
As of 9:58 PM on Monday 26 Jan 2015 (Local Time) from KPSM Reporting Station
Light Snow Light Snow  
Wind Chill:   Ceiling: 2100
Heat Index: 17°   Visibility: 8mi
Dew Point:   Wind: 16mph
Humidity: 54%   Direction: 20°NNE
Pressure: 30.02"   Gusts: 29mph
Location:  42.92°N, 70.86°W
Report Text: KPSM 270258Z 02014G25KT 8SM -SN OVC021 M09/M16 A3002 RMK AO2A SLP171 P0000 60000 T10861164 58025
Loading
Personal Weather Stations






























Interactive Weather Map New forecast layout! Learn more

10-Day Weather Forecast

Advertisements
Track Severe Weather on mobile